createdAt,value
2017-11-19T00:02:10.155Z,84.10
2017-11-19T00:04:38.622Z,84.20
2017-11-19T00:07:06.712Z,83.80
2017-11-19T00:09:36.519Z,85.20
2017-11-19T00:12:05.192Z,84.40
2017-11-19T00:14:35.127Z,84.70
2017-11-19T00:17:04.326Z,84.10
2017-11-19T00:19:33.545Z,84.30
2017-11-19T00:22:01.339Z,84.30
2017-11-19T00:24:29.430Z,84.50
2017-11-19T00:26:57.873Z,84.40
2017-11-19T00:29:26.304Z,84.50
2017-11-19T00:31:54.065Z,84.00
2017-11-19T00:34:22.511Z,83.90
2017-11-19T00:36:50.611Z,83.50
2017-11-19T00:39:19.811Z,83.00
2017-11-19T00:41:48.411Z,83.00
2017-11-19T00:44:17.605Z,83.20
2017-11-19T00:46:46.814Z,83.10
2017-11-19T00:49:16.059Z,83.70
2017-11-19T00:51:44.486Z,83.70
2017-11-19T00:54:13.681Z,83.40
2017-11-19T00:56:42.900Z,83.60
2017-11-19T00:59:11.327Z,83.60
2017-11-19T01:01:39.755Z,84.10
2017-11-19T01:04:08.207Z,84.10
2017-11-19T01:06:37.407Z,84.60
2017-11-19T01:09:06.607Z,85.20
2017-11-19T01:11:35.843Z,85.20
2017-11-19T01:14:04.271Z,85.20
2017-11-19T01:16:33.490Z,85.60
2017-11-19T01:19:01.958Z,85.70
2017-11-19T01:21:31.162Z,86.30
2017-11-19T01:24:00.384Z,86.60
2017-11-19T01:26:29.070Z,86.60
2017-11-19T01:28:57.496Z,86.70
2017-11-19T01:31:27.197Z,87.00
2017-11-19T01:33:55.650Z,87.80
2017-11-19T01:36:24.078Z,88.50
2017-11-19T01:38:53.326Z,90.60
2017-11-19T01:41:21.798Z,90.60
2017-11-19T01:43:49.935Z,91.20
2017-11-19T01:46:19.130Z,92.30
2017-11-19T01:48:48.338Z,92.90
2017-11-19T01:51:16.440Z,92.90
2017-11-19T01:53:44.866Z,93.40
2017-11-19T01:56:13.315Z,94.00
2017-11-19T01:58:41.751Z,94.70
2017-11-19T02:01:10.189Z,95.20
2017-11-19T02:03:38.650Z,95.60
2017-11-19T02:06:07.086Z,96.10
2017-11-19T02:08:35.519Z,96.80
2017-11-19T02:11:03.303Z,97.00
2017-11-19T02:13:31.736Z,97.80
2017-11-19T02:16:00.162Z,98.10
2017-11-19T02:18:28.615Z,98.60
2017-11-19T02:20:57.998Z,98.60
2017-11-19T02:23:26.098Z,99.00
2017-11-19T02:25:54.563Z,99.20
2017-11-19T02:28:22.982Z,99.10
2017-11-19T02:30:52.189Z,99.60
2017-11-19T02:33:21.971Z,99.90
2017-11-19T02:35:50.430Z,99.90
2017-11-19T02:38:18.865Z,99.90
2017-11-19T02:40:47.318Z,99.90
2017-11-19T02:43:16.574Z,99.90
2017-11-19T02:45:45.006Z,99.90
2017-11-19T02:48:14.230Z,99.90
2017-11-19T02:50:42.658Z,99.90
2017-11-19T02:53:11.090Z,99.90
2017-11-19T02:55:39.549Z,99.90
2017-11-19T02:58:08.749Z,99.90
2017-11-19T03:00:37.174Z,99.90
2017-11-19T03:03:05.639Z,99.90
2017-11-19T03:05:34.073Z,99.90
2017-11-19T03:08:03.907Z,99.90
2017-11-19T03:10:32.382Z,99.90
2017-11-19T03:13:00.814Z,99.90
2017-11-19T03:15:29.251Z,99.90
2017-11-19T03:17:57.741Z,99.90
2017-11-19T03:20:25.507Z,99.90
2017-11-19T03:22:53.964Z,99.90
2017-11-19T03:25:22.437Z,99.90
2017-11-19T03:27:50.209Z,99.90
2017-11-19T03:30:18.644Z,99.90
2017-11-19T03:32:47.099Z,99.90
2017-11-19T03:35:15.526Z,99.90
2017-11-19T03:37:44.734Z,99.90
2017-11-19T03:40:13.187Z,99.90
2017-11-19T03:42:41.614Z,99.90
2017-11-19T03:45:10.467Z,99.90
2017-11-19T03:47:39.710Z,99.90
2017-11-19T03:50:08.134Z,99.90
2017-11-19T03:52:36.581Z,99.90
2017-11-19T03:55:05.191Z,99.90
2017-11-19T03:57:33.628Z,99.90
2017-11-19T04:00:02.134Z,99.90
2017-11-19T04:02:30.599Z,99.90
2017-11-19T04:04:59.030Z,99.90
2017-11-19T04:07:28.228Z,99.90
2017-11-19T04:09:57.463Z,99.90
2017-11-19T04:12:25.896Z,99.90
2017-11-19T04:14:55.099Z,99.90
2017-11-19T04:17:24.313Z,99.90
2017-11-19T04:19:52.750Z,99.90
2017-11-19T04:22:21.187Z,99.90
2017-11-19T04:24:49.303Z,99.90
2017-11-19T04:27:17.540Z,99.90
2017-11-19T04:29:45.314Z,99.90
2017-11-19T04:32:13.432Z,99.90
2017-11-19T04:34:42.630Z,99.90
2017-11-19T04:37:11.494Z,99.90
2017-11-19T04:39:39.622Z,99.90
2017-11-19T04:42:08.053Z,99.90
2017-11-19T04:44:37.255Z,99.90
2017-11-19T04:47:05.994Z,99.90
2017-11-19T04:49:34.413Z,99.90
2017-11-19T04:52:03.601Z,99.90
2017-11-19T04:54:32.062Z,99.90
2017-11-19T04:57:00.489Z,99.90
2017-11-19T04:59:29.684Z,99.90
2017-11-19T05:01:58.890Z,99.90
2017-11-19T05:04:28.082Z,99.90
2017-11-19T05:06:57.277Z,99.90
2017-11-19T05:09:26.525Z,99.90
2017-11-19T05:11:54.951Z,99.90
2017-11-19T05:14:24.146Z,99.90
2017-11-19T05:16:53.393Z,99.90
2017-11-19T05:19:21.850Z,99.90
2017-11-19T05:21:50.284Z,99.90
2017-11-19T05:24:18.743Z,99.90
2017-11-19T05:26:47.170Z,99.90
2017-11-19T05:29:19.306Z,99.90
2017-11-19T05:31:47.730Z,99.90
2017-11-19T05:34:15.825Z,99.90
2017-11-19T05:36:44.298Z,99.90
2017-11-19T05:39:12.724Z,99.90
2017-11-19T05:41:42.139Z,99.90
2017-11-19T05:44:12.518Z,99.90
2017-11-19T05:46:40.940Z,99.90
2017-11-19T05:49:10.131Z,99.90
2017-11-19T05:51:39.568Z,99.90
2017-11-19T05:54:08.003Z,99.90
2017-11-19T05:56:36.423Z,99.90
2017-11-19T05:59:04.885Z,99.90
2017-11-19T06:01:33.318Z,99.90
2017-11-19T06:04:01.754Z,99.90
2017-11-19T06:06:30.203Z,99.90
2017-11-19T06:08:59.451Z,99.90
2017-11-19T06:11:27.882Z,99.90
2017-11-19T06:13:57.091Z,99.90
2017-11-19T06:16:26.279Z,99.90
2017-11-19T06:18:55.474Z,99.90
2017-11-19T06:21:24.926Z,99.90
2017-11-19T06:23:53.378Z,99.90
2017-11-19T06:26:21.799Z,99.90
2017-11-19T06:28:50.246Z,99.90
2017-11-19T06:31:18.698Z,99.90
2017-11-19T06:33:47.905Z,99.90
2017-11-19T06:36:17.114Z,99.90
2017-11-19T06:38:45.530Z,99.90
2017-11-19T06:41:13.961Z,99.90
2017-11-19T06:43:42.410Z,99.90
2017-11-19T06:46:11.015Z,99.90
2017-11-19T06:48:39.547Z,99.90
2017-11-19T06:51:08.001Z,99.90
2017-11-19T06:53:36.422Z,99.90
2017-11-19T06:56:04.909Z,99.90
2017-11-19T06:58:33.376Z,99.90
2017-11-19T07:01:01.811Z,99.90
2017-11-19T07:03:30.247Z,99.90
2017-11-19T07:05:58.715Z,99.90
2017-11-19T07:08:27.150Z,99.90
2017-11-19T07:10:55.579Z,99.90
2017-11-19T07:13:25.164Z,99.90
2017-11-19T07:15:53.591Z,99.90
2017-11-19T07:18:22.792Z,99.90
2017-11-19T07:20:52.015Z,99.90
2017-11-19T07:23:20.462Z,99.90
2017-11-19T07:25:49.683Z,99.90
2017-11-19T07:28:17.602Z,99.90
2017-11-19T07:30:45.507Z,99.90
2017-11-19T07:33:13.422Z,99.90
2017-11-19T07:35:41.574Z,99.90
2017-11-19T07:38:10.001Z,99.90
2017-11-19T07:40:38.433Z,99.90
2017-11-19T07:43:06.924Z,99.90
2017-11-19T07:45:35.365Z,99.90
2017-11-19T07:48:03.456Z,99.90
2017-11-19T07:50:31.057Z,99.90
2017-11-19T07:52:59.487Z,99.90
2017-11-19T07:55:28.134Z,99.90
2017-11-19T07:57:57.355Z,99.90
2017-11-19T08:00:25.119Z,99.90
2017-11-19T08:02:53.542Z,99.90
2017-11-19T08:05:21.662Z,99.90
2017-11-19T08:07:50.851Z,99.90
2017-11-19T08:10:20.053Z,99.90
2017-11-19T08:12:49.311Z,99.90
2017-11-19T08:15:17.736Z,99.90
2017-11-19T08:17:46.155Z,99.90
2017-11-19T08:20:14.273Z,99.90
2017-11-19T08:22:43.470Z,99.90
2017-11-19T08:25:12.662Z,99.90
2017-11-19T08:27:41.897Z,99.90
2017-11-19T08:30:10.318Z,99.90
2017-11-19T08:32:38.738Z,99.90
2017-11-19T08:35:07.186Z,99.90
2017-11-19T08:37:35.614Z,99.90
2017-11-19T08:40:03.698Z,99.90
2017-11-19T08:42:32.769Z,99.90
2017-11-19T08:45:01.211Z,99.90
2017-11-19T08:47:29.637Z,99.90
2017-11-19T08:49:58.100Z,99.90
2017-11-19T08:52:26.527Z,99.90
2017-11-19T08:54:55.559Z,99.90
2017-11-19T08:57:24.039Z,99.90
2017-11-19T08:59:52.484Z,99.90
2017-11-19T09:02:20.917Z,99.90
2017-11-19T09:04:49.375Z,99.90
2017-11-19T09:07:18.581Z,99.90
2017-11-19T09:09:47.109Z,99.90
2017-11-19T09:12:15.570Z,99.90
2017-11-19T09:14:43.998Z,99.90
2017-11-19T09:17:13.270Z,99.90
2017-11-19T09:19:41.725Z,99.90
2017-11-19T09:22:10.151Z,99.90
2017-11-19T09:24:38.576Z,99.90
2017-11-19T09:27:07.828Z,99.90
2017-11-19T09:29:36.274Z,99.90
2017-11-19T09:32:04.700Z,99.90
2017-11-19T09:34:33.910Z,99.90
2017-11-19T09:37:02.386Z,99.90
2017-11-19T09:39:30.865Z,99.90
2017-11-19T09:41:59.313Z,99.90
2017-11-19T09:44:27.747Z,99.90
2017-11-19T09:46:56.166Z,99.90
2017-11-19T09:49:24.636Z,99.90
2017-11-19T09:51:53.059Z,99.90
2017-11-19T09:54:22.255Z,99.90
2017-11-19T09:56:51.477Z,99.90
2017-11-19T09:59:19.908Z,99.90
2017-11-19T10:01:48.335Z,99.90
2017-11-19T10:04:16.791Z,99.90
2017-11-19T10:06:45.992Z,99.90
2017-11-19T10:09:14.441Z,99.90
2017-11-19T10:11:42.919Z,99.90
2017-11-19T10:14:11.351Z,99.90
2017-11-19T10:16:39.782Z,99.90
2017-11-19T10:19:08.056Z,99.90
2017-11-19T10:21:36.477Z,99.90
2017-11-19T10:24:04.571Z,99.90
2017-11-19T10:26:33.026Z,99.90
2017-11-19T10:29:01.454Z,99.90
2017-11-19T10:31:29.874Z,99.90
2017-11-19T10:33:58.315Z,99.90
2017-11-19T10:36:26.752Z,99.90
2017-11-19T10:38:55.189Z,99.90
2017-11-19T10:41:24.411Z,99.90
2017-11-19T10:43:53.609Z,99.90
2017-11-19T10:46:22.037Z,99.90
2017-11-19T10:48:50.486Z,99.90
2017-11-19T10:51:18.918Z,99.90
2017-11-19T10:53:48.111Z,99.90
2017-11-19T10:56:17.346Z,99.90
2017-11-19T10:58:45.795Z,99.90
2017-11-19T11:01:14.538Z,99.90
2017-11-19T11:03:45.124Z,99.90
2017-11-19T11:06:13.556Z,99.90
2017-11-19T11:08:41.988Z,99.90
2017-11-19T11:11:10.447Z,99.90
2017-11-19T11:13:39.651Z,99.90
2017-11-19T11:16:08.847Z,99.80
2017-11-19T11:18:38.064Z,99.90
2017-11-19T11:21:06.494Z,99.90
2017-11-19T11:23:34.924Z,99.90
2017-11-19T11:26:03.381Z,99.90
2017-11-19T11:28:32.578Z,99.90
2017-11-19T11:31:01.843Z,98.80
2017-11-19T11:33:30.501Z,98.70
2017-11-19T11:35:59.044Z,99.30
2017-11-19T11:38:28.235Z,98.70
2017-11-19T11:40:57.451Z,97.90
2017-11-19T11:43:26.841Z,98.10
2017-11-19T11:45:56.166Z,97.30
2017-11-19T11:48:24.627Z,97.30
2017-11-19T11:50:53.051Z,97.50
2017-11-19T11:53:21.475Z,97.50
2017-11-19T11:55:50.685Z,97.00
2017-11-19T11:58:19.108Z,96.90
2017-11-19T12:00:47.581Z,95.50
2017-11-19T12:03:16.196Z,96.90
2017-11-19T12:05:44.640Z,96.70
2017-11-19T12:08:12.885Z,96.30
2017-11-19T12:10:41.780Z,95.60
2017-11-19T12:13:10.229Z,96.00
2017-11-19T12:15:39.460Z,96.20
2017-11-19T12:18:07.938Z,96.20
2017-11-19T12:20:36.584Z,96.50
2017-11-19T12:23:05.770Z,95.60
2017-11-19T12:25:33.561Z,95.30
2017-11-19T12:28:02.761Z,95.60
2017-11-19T12:30:30.875Z,95.50
2017-11-19T12:32:59.339Z,95.30
2017-11-19T12:35:27.771Z,94.30
2017-11-19T12:37:56.967Z,92.00
2017-11-19T12:40:25.848Z,93.40
2017-11-19T12:42:54.347Z,93.30
2017-11-19T12:45:22.824Z,91.30
2017-11-19T12:47:52.055Z,90.70
2017-11-19T12:50:20.481Z,90.70
2017-11-19T12:52:48.571Z,91.00
2017-11-19T12:55:17.784Z,90.80
2017-11-19T12:57:46.215Z,90.70
2017-11-19T13:00:13.979Z,90.80
2017-11-19T13:02:42.422Z,91.50
2017-11-19T13:05:10.846Z,92.00
2017-11-19T13:07:39.271Z,92.70
2017-11-19T13:10:07.734Z,93.60
2017-11-19T13:12:36.933Z,94.00
2017-11-19T13:15:05.840Z,94.00
2017-11-19T13:17:34.591Z,94.30
2017-11-19T13:20:03.844Z,94.80
2017-11-19T13:22:32.875Z,94.60
2017-11-19T13:25:01.793Z,93.50
2017-11-19T13:27:30.405Z,93.20
2017-11-19T13:29:59.869Z,91.80
2017-11-19T13:32:28.418Z,91.80
2017-11-19T13:34:57.390Z,91.00
2017-11-19T13:37:26.856Z,92.10
2017-11-19T13:39:55.369Z,92.00
2017-11-19T13:42:23.809Z,92.20
2017-11-19T13:44:53.298Z,92.20
2017-11-19T13:47:21.800Z,92.20
2017-11-19T13:49:50.227Z,92.80
2017-11-19T13:52:18.725Z,91.10
2017-11-19T13:54:48.090Z,90.10
2017-11-19T13:57:16.515Z,90.10
2017-11-19T13:59:45.711Z,91.40
2017-11-19T14:02:14.547Z,91.10
2017-11-19T14:04:43.124Z,90.80
2017-11-19T14:07:11.555Z,91.20
2017-11-19T14:09:40.268Z,90.60
2017-11-19T14:12:10.070Z,91.20
2017-11-19T14:14:38.919Z,91.10
2017-11-19T14:17:07.479Z,90.60
2017-11-19T14:19:36.975Z,88.90
2017-11-19T14:22:06.683Z,90.20
2017-11-19T14:24:35.135Z,90.10
2017-11-19T14:27:04.311Z,89.80
2017-11-19T14:29:33.266Z,90.10
2017-11-19T14:32:02.747Z,90.50
2017-11-19T14:34:31.183Z,90.50
2017-11-19T14:37:00.214Z,90.90
2017-11-19T14:39:28.752Z,91.10
2017-11-19T14:41:58.589Z,91.00
2017-11-19T14:44:27.800Z,91.00
2017-11-19T14:46:56.530Z,91.00
2017-11-19T14:49:25.453Z,91.40
2017-11-19T14:51:54.774Z,91.70
2017-11-19T14:54:23.538Z,91.90
2017-11-19T14:56:52.223Z,91.80
2017-11-19T14:59:21.422Z,92.20
2017-11-19T15:01:50.772Z,91.90
2017-11-19T15:04:19.254Z,91.90
2017-11-19T15:06:48.075Z,92.20
2017-11-19T15:09:16.790Z,92.20
2017-11-19T15:11:45.292Z,92.20
2017-11-19T15:14:13.988Z,92.80
2017-11-19T15:16:42.888Z,92.90
2017-11-19T15:19:11.663Z,93.10
2017-11-19T15:21:40.106Z,93.20
2017-11-19T15:24:08.585Z,93.50
2017-11-19T15:26:37.271Z,93.70
2017-11-19T15:29:06.771Z,93.60
2017-11-19T15:31:35.598Z,93.60
2017-11-19T15:34:05.054Z,93.30
2017-11-19T15:36:34.251Z,93.20
2017-11-19T15:39:03.128Z,93.20
2017-11-19T15:41:31.737Z,93.40
2017-11-19T15:44:02.198Z,93.60
2017-11-19T15:46:30.819Z,93.50
2017-11-19T15:48:59.289Z,93.40
2017-11-19T15:51:27.788Z,93.30
2017-11-19T15:56:36.686Z,93.20
2017-11-19T15:59:06.166Z,93.10
2017-11-19T16:01:36.560Z,93.10
2017-11-19T16:06:44.619Z,93.20
2017-11-19T16:09:13.207Z,93.10
2017-11-19T16:11:42.667Z,94.20
2017-11-19T16:14:12.052Z,93.10
2017-11-19T16:16:40.993Z,93.10
2017-11-19T16:19:09.727Z,93.10
2017-11-19T16:21:38.472Z,93.20
2017-11-19T16:24:07.935Z,93.20
2017-11-19T16:26:36.457Z,93.20
2017-11-19T16:29:05.942Z,93.50
2017-11-19T16:31:34.469Z,93.40
2017-11-19T16:34:04.339Z,93.50
2017-11-19T16:39:13.860Z,93.60
2017-11-19T16:41:42.702Z,93.60
2017-11-19T16:44:11.640Z,93.60
2017-11-19T16:49:20.520Z,93.70
2017-11-19T16:51:50.089Z,93.90
2017-11-19T16:54:18.877Z,93.70
2017-11-19T16:56:47.391Z,93.30
2017-11-19T16:59:16.231Z,93.50
2017-11-19T17:01:44.655Z,93.60
2017-11-19T17:04:13.132Z,93.70
2017-11-19T17:06:42.491Z,93.40
2017-11-19T17:09:11.199Z,93.50
2017-11-19T17:11:39.914Z,93.50
2017-11-19T17:14:08.351Z,93.40
2017-11-19T17:16:37.107Z,93.40
2017-11-19T17:19:05.663Z,93.60
2017-11-19T17:21:35.139Z,93.20
2017-11-19T17:24:04.004Z,93.20
2017-11-19T17:26:33.258Z,93.10
2017-11-19T17:29:02.567Z,93.10
2017-11-19T17:31:31.011Z,93.10
2017-11-19T17:34:01.323Z,93.10
2017-11-19T17:36:33.591Z,93.00
2017-11-19T17:39:02.795Z,92.80
2017-11-19T17:41:31.481Z,92.80
2017-11-19T17:44:00.022Z,92.90
2017-11-19T17:46:29.299Z,92.60
2017-11-19T17:48:59.028Z,93.10
2017-11-19T17:51:27.719Z,93.10
2017-11-19T17:53:57.383Z,92.80
2017-11-19T17:56:26.079Z,92.80
2017-11-19T17:58:55.546Z,92.70
2017-11-19T18:01:24.255Z,92.70
2017-11-19T18:03:52.683Z,92.60
2017-11-19T18:06:21.527Z,92.40
2017-11-19T18:08:50.240Z,92.40
2017-11-19T18:11:18.686Z,92.50
2017-11-19T18:13:47.431Z,92.30
2017-11-19T18:16:16.727Z,92.20
2017-11-19T18:18:44.898Z,92.40
2017-11-19T18:21:13.616Z,92.20
2017-11-19T18:23:42.999Z,92.00
2017-11-19T18:26:12.871Z,92.00
2017-11-19T18:28:41.697Z,92.00
2017-11-19T18:31:10.417Z,91.90
2017-11-19T18:33:39.113Z,91.90
2017-11-19T18:36:07.649Z,91.70
2017-11-19T18:38:36.408Z,91.80
2017-11-19T18:41:04.834Z,91.70
2017-11-19T18:43:33.258Z,91.60
2017-11-19T18:46:02.042Z,91.40
2017-11-19T18:48:30.768Z,91.40
2017-11-19T18:51:00.154Z,91.40
2017-11-19T18:53:29.038Z,91.20
2017-11-19T18:55:57.934Z,91.30
2017-11-19T18:58:26.946Z,91.60
2017-11-19T19:00:56.157Z,91.40
2017-11-19T19:03:25.603Z,91.40
2017-11-19T19:05:54.208Z,91.30
2017-11-19T19:08:22.713Z,91.40
2017-11-19T19:10:51.414Z,91.30
2017-11-19T19:13:20.105Z,91.50
2017-11-19T19:15:49.607Z,92.10
2017-11-19T19:18:18.374Z,91.90
2017-11-19T19:20:47.256Z,92.00
2017-11-19T19:23:15.933Z,91.50
2017-11-19T19:25:44.828Z,91.70
2017-11-19T19:28:13.522Z,91.70
2017-11-19T19:30:43.041Z,91.50
2017-11-19T19:33:11.814Z,91.50
2017-11-19T19:35:40.541Z,91.50
2017-11-19T19:38:10.028Z,91.60
2017-11-19T19:40:38.450Z,91.60
2017-11-19T19:43:07.139Z,91.80
2017-11-19T19:45:35.597Z,91.70
2017-11-19T19:48:03.967Z,91.60
2017-11-19T19:50:32.393Z,91.40
2017-11-19T19:53:01.606Z,91.30
2017-11-19T19:55:30.310Z,91.30
2017-11-19T19:57:58.998Z,91.30
2017-11-19T20:00:28.963Z,91.20
2017-11-19T20:02:58.219Z,91.10
2017-11-19T20:05:26.643Z,91.20
2017-11-19T20:07:55.792Z,91.20
2017-11-19T20:10:24.214Z,91.20
2017-11-19T20:12:53.170Z,91.70
2017-11-19T20:15:22.646Z,91.10
2017-11-19T20:17:52.229Z,91.30
2017-11-19T20:20:21.238Z,91.20
2017-11-19T20:22:50.265Z,91.20
2017-11-19T20:25:19.635Z,91.30
2017-11-19T20:27:48.337Z,91.20
2017-11-19T20:30:17.035Z,91.40
2017-11-19T20:32:45.735Z,91.30
2017-11-19T20:35:14.850Z,91.40
2017-11-19T20:37:44.289Z,91.30
2017-11-19T20:40:12.984Z,91.30
2017-11-19T20:42:42.264Z,91.10
2017-11-19T20:45:10.710Z,91.00
2017-11-19T20:47:39.257Z,91.00
2017-11-19T20:50:07.678Z,91.00
2017-11-19T20:52:36.358Z,90.70
2017-11-19T20:55:04.862Z,91.00
2017-11-19T20:57:33.916Z,91.00
2017-11-19T21:00:03.274Z,91.20
2017-11-19T21:02:31.698Z,91.30
2017-11-19T21:05:00.132Z,91.20
2017-11-19T21:07:29.075Z,90.90
2017-11-19T21:09:57.802Z,91.00
2017-11-19T21:12:27.293Z,91.20
2017-11-19T21:14:56.017Z,91.20
2017-11-19T21:17:25.474Z,91.40
2017-11-19T21:19:54.662Z,91.50
2017-11-19T21:22:23.492Z,91.50
2017-11-19T21:24:52.195Z,91.30
2017-11-19T21:27:20.733Z,91.40
2017-11-19T21:29:50.068Z,91.50
2017-11-19T21:32:19.014Z,91.50
2017-11-19T21:34:47.497Z,91.60
2017-11-19T21:37:16.720Z,91.20
2017-11-19T21:39:45.150Z,91.20
2017-11-19T21:42:13.575Z,91.30
2017-11-19T21:44:42.028Z,91.30
2017-11-19T21:47:11.216Z,90.80
2017-11-19T21:49:40.418Z,91.50
2017-11-19T21:52:09.667Z,90.90
2017-11-19T21:54:38.094Z,90.90
2017-11-19T21:57:07.301Z,91.10
2017-11-19T21:59:36.516Z,91.10
2017-11-19T22:02:04.950Z,91.00
2017-11-19T22:04:33.374Z,90.90
2017-11-19T22:07:01.844Z,90.60
2017-11-19T22:09:30.270Z,90.70
2017-11-19T22:11:58.694Z,91.10
2017-11-19T22:14:27.911Z,90.70
2017-11-19T22:16:56.338Z,90.70
2017-11-19T22:19:24.782Z,90.70
2017-11-19T22:21:53.226Z,90.80
2017-11-19T22:24:22.430Z,90.70
2017-11-19T22:26:51.618Z,91.00
2017-11-19T22:29:20.833Z,90.90
2017-11-19T22:31:49.253Z,90.90
2017-11-19T22:34:17.682Z,90.60
2017-11-19T22:36:47.255Z,91.00
2017-11-19T22:39:15.677Z,91.00
2017-11-19T22:41:44.105Z,90.90
2017-11-19T22:44:13.274Z,90.80
2017-11-19T22:46:41.702Z,91.00
2017-11-19T22:49:10.893Z,91.40
2017-11-19T22:51:39.350Z,91.10
2017-11-19T22:54:07.781Z,91.10
2017-11-19T22:56:36.205Z,91.00
2017-11-19T22:59:04.665Z,90.90
2017-11-19T23:01:33.081Z,91.10
2017-11-19T23:04:01.501Z,91.40
2017-11-19T23:06:30.903Z,91.10
2017-11-19T23:08:59.327Z,91.00
2017-11-19T23:11:27.751Z,91.10
2017-11-19T23:13:56.193Z,91.10
2017-11-19T23:16:24.618Z,91.10
2017-11-19T23:18:53.042Z,91.30
2017-11-19T23:21:21.485Z,91.30
2017-11-19T23:23:49.910Z,91.30
2017-11-19T23:26:18.338Z,91.40
2017-11-19T23:28:46.806Z,91.20
2017-11-19T23:31:15.238Z,91.50
2017-11-19T23:33:43.671Z,91.30
2017-11-19T23:36:12.121Z,91.20
2017-11-19T23:38:40.540Z,91.30
2017-11-19T23:41:08.972Z,91.20
2017-11-19T23:43:37.417Z,91.00
2017-11-19T23:46:05.841Z,91.20
2017-11-19T23:48:35.034Z,91.30
2017-11-19T23:51:04.249Z,91.20
2017-11-19T23:53:33.434Z,91.00
2017-11-19T23:56:02.621Z,90.70
2017-11-19T23:58:31.070Z,90.70
